createdAt,value
2023-03-22T00:00:24.376Z,6.18
2023-03-22T00:02:51.309Z,6.10
2023-03-22T00:05:17.994Z,7.50
2023-03-22T00:07:44.603Z,7.40
2023-03-22T00:10:16.487Z,8.33
2023-03-22T00:27:26.121Z,8.90
2023-03-22T00:29:52.804Z,9.13
2023-03-22T00:32:19.459Z,8.85
2023-03-22T00:34:48.979Z,9.60
2023-03-22T00:39:48.634Z,8.70
2023-03-22T00:42:20.141Z,7.75
2023-03-22T00:44:46.756Z,8.43
2023-03-22T00:47:14.137Z,7.28
2023-03-22T00:49:41.276Z,6.70
2023-03-22T00:52:10.752Z,7.18
2023-03-22T00:54:37.380Z,6.60
2023-03-22T00:57:04.114Z,8.25
2023-03-22T00:59:30.808Z,7.95
2023-03-22T01:01:59.048Z,8.20
2023-03-22T01:04:26.357Z,8.88
2023-03-22T01:07:03.560Z,8.48
2023-03-22T01:09:35.513Z,7.78
2023-03-22T01:12:02.446Z,7.38
2023-03-22T01:14:31.821Z,8.10
2023-03-22T01:16:58.548Z,7.38
2023-03-22T01:19:27.538Z,7.28
2023-03-22T01:21:57.790Z,7.75
2023-03-22T01:24:32.248Z,7.90
2023-03-22T01:29:25.979Z,8.57
2023-03-22T01:31:53.180Z,8.82
2023-03-22T01:34:22.334Z,9.05
2023-03-22T01:36:50.509Z,10.52
2023-03-22T01:39:17.219Z,10.88
2023-03-22T02:01:37.429Z,9.55
2023-03-22T02:04:14.066Z,8.43
2023-03-22T02:06:41.040Z,7.82
2023-03-22T02:09:11.198Z,8.10
2023-03-22T02:22:10.848Z,7.65
2023-03-22T02:43:38.559Z,6.95
2023-03-22T02:46:24.736Z,6.53
2023-03-22T02:49:09.339Z,6.10
2023-03-22T02:51:47.279Z,6.13
2023-03-22T02:54:23.887Z,6.55
2023-03-22T02:57:03.103Z,6.90
2023-03-22T02:59:32.147Z,6.20
2023-03-22T03:02:03.840Z,7.13
2023-03-22T03:04:41.179Z,6.32
2023-03-22T03:07:11.988Z,7.03
2023-03-22T03:09:41.857Z,8.00
2023-03-22T03:12:19.725Z,7.63
2023-03-22T03:14:46.424Z,8.25
2023-03-22T03:17:27.962Z,8.30
2023-03-22T03:20:08.618Z,7.63
2023-03-22T03:22:35.235Z,9.45
2023-03-22T03:25:18.893Z,8.60
2023-03-22T03:28:06.695Z,8.93
2023-03-22T03:30:50.414Z,9.15
2023-03-22T03:33:20.753Z,9.93
2023-03-22T03:35:57.000Z,10.43
2023-03-22T03:38:28.608Z,8.50
2023-03-22T03:41:03.288Z,9.68
2023-03-22T03:43:40.530Z,12.50
2023-03-22T03:46:08.629Z,13.02
2023-03-22T03:48:37.644Z,10.43
2023-03-22T03:51:07.140Z,11.40
2023-03-22T03:53:33.833Z,9.02
2023-03-22T03:56:00.437Z,9.10
2023-03-22T03:58:27.119Z,8.77
2023-03-22T04:00:55.711Z,9.63
2023-03-22T04:03:24.168Z,9.35
2023-03-22T04:05:50.885Z,9.68
2023-03-22T04:08:20.489Z,10.50
2023-03-22T04:10:53.026Z,11.45
2023-03-22T04:13:24.985Z,9.43
2023-03-22T04:16:00.304Z,10.63
2023-03-22T04:18:32.753Z,10.32
2023-03-22T04:21:03.461Z,13.13
2023-03-22T04:23:36.220Z,11.15
2023-03-22T04:26:03.852Z,9.68
2023-03-22T04:28:33.922Z,10.55
2023-03-22T04:31:06.206Z,12.32
2023-03-22T04:33:39.525Z,11.50
2023-03-22T04:36:12.346Z,10.70
2023-03-22T04:38:44.216Z,11.77
2023-03-22T04:41:11.161Z,12.45
2023-03-22T04:43:39.397Z,15.02
2023-03-22T04:46:10.172Z,15.20
2023-03-22T04:48:40.862Z,13.50
2023-03-22T04:51:09.965Z,13.27
2023-03-22T04:53:40.020Z,13.93
2023-03-22T04:56:14.003Z,12.23
2023-03-22T04:58:44.629Z,11.65
2023-03-22T05:01:13.334Z,13.52
2023-03-22T05:03:41.594Z,12.18
2023-03-22T05:06:11.805Z,12.55
2023-03-22T05:08:38.638Z,12.23
2023-03-22T05:11:20.117Z,10.57
2023-03-22T05:13:46.804Z,11.95
2023-03-22T05:16:13.467Z,11.35
2023-03-22T05:18:45.713Z,13.70
2023-03-22T05:21:15.614Z,14.18
2023-03-22T05:23:43.540Z,13.05
2023-03-22T05:26:15.696Z,17.63
2023-03-22T05:28:44.428Z,18.02
2023-03-22T05:31:11.924Z,14.25
2023-03-22T05:33:41.880Z,12.90
2023-03-22T05:36:11.705Z,13.63
2023-03-22T05:38:41.311Z,15.90
2023-03-22T05:41:08.174Z,15.63
2023-03-22T05:43:34.893Z,17.65
2023-03-22T05:46:05.841Z,16.02
2023-03-22T05:48:32.414Z,16.08
2023-03-22T05:51:01.959Z,15.40
2023-03-22T05:53:28.642Z,14.50
2023-03-22T05:55:57.725Z,15.20
2023-03-22T05:58:25.148Z,17.27
2023-03-22T06:00:53.155Z,20.30
2023-03-22T06:03:19.911Z,18.10
2023-03-22T06:05:50.915Z,17.88
2023-03-22T06:08:17.548Z,17.33
2023-03-22T06:10:44.136Z,20.45
2023-03-22T06:13:10.924Z,18.13
2023-03-22T06:15:40.710Z,13.63
2023-03-22T06:18:07.440Z,17.77
2023-03-22T06:20:37.148Z,14.15
2023-03-22T06:23:03.910Z,14.50
2023-03-22T06:25:30.700Z,14.75
2023-03-22T06:27:59.871Z,16.20
2023-03-22T06:30:26.643Z,15.50
2023-03-22T06:32:53.388Z,19.33
2023-03-22T06:35:20.491Z,13.73
2023-03-22T06:37:47.370Z,12.57
2023-03-22T06:40:16.858Z,14.82
2023-03-22T06:42:47.908Z,13.90
2023-03-22T06:45:16.509Z,13.75
2023-03-22T06:47:48.682Z,13.63
2023-03-22T06:50:16.055Z,12.88
2023-03-22T06:52:42.684Z,20.13
2023-03-22T06:55:15.876Z,15.32
2023-03-22T06:57:42.541Z,14.77
2023-03-22T07:00:12.827Z,18.85
2023-03-22T07:02:50.350Z,20.15
2023-03-22T07:17:35.776Z,16.60
2023-03-22T07:20:03.553Z,20.75
2023-03-22T07:22:32.600Z,18.83
2023-03-22T07:25:01.598Z,17.38
2023-03-22T07:27:28.372Z,16.77
2023-03-22T07:29:55.170Z,17.05
2023-03-22T07:32:24.215Z,15.85
2023-03-22T07:34:51.099Z,20.90
2023-03-22T09:13:55.941Z,11.50
2023-03-22T09:36:19.679Z,21.95
2023-03-22T09:38:47.818Z,13.02
2023-03-22T09:41:21.424Z,12.45
2023-03-22T09:43:52.909Z,20.58
2023-03-22T09:46:30.018Z,24.35
2023-03-22T09:49:03.052Z,11.55
2023-03-22T09:51:36.236Z,12.65
2023-03-22T09:54:08.812Z,11.48
2023-03-22T09:56:39.645Z,11.65
2023-03-22T09:59:17.598Z,17.27
2023-03-22T10:01:57.785Z,12.80
2023-03-22T10:04:36.840Z,12.50
2023-03-22T10:07:15.156Z,11.68
2023-03-22T10:09:56.324Z,16.58
2023-03-22T10:12:34.133Z,12.25
2023-03-22T10:15:20.394Z,10.55
2023-03-22T10:18:03.389Z,8.02
2023-03-22T10:20:47.515Z,12.88
2023-03-22T10:23:28.338Z,12.25
2023-03-22T10:25:58.998Z,12.77
2023-03-22T10:28:38.209Z,20.60
2023-03-22T10:31:06.522Z,13.38
2023-03-22T10:33:58.428Z,11.40
2023-03-22T10:36:31.357Z,9.65
2023-03-22T10:39:25.748Z,9.68
2023-03-22T10:41:57.829Z,8.00
2023-03-22T10:44:27.715Z,7.63
2023-03-22T10:47:02.555Z,10.40
2023-03-22T10:49:34.298Z,7.10
2023-03-22T10:52:21.265Z,8.20
2023-03-22T10:54:48.039Z,8.05
2023-03-22T10:57:14.681Z,11.88
2023-03-22T11:00:00.411Z,7.63
2023-03-22T11:02:32.758Z,8.13
2023-03-22T11:05:05.076Z,8.93
2023-03-22T11:07:48.132Z,9.02
2023-03-22T11:10:27.684Z,10.10
2023-03-22T11:39:09.165Z,13.25
2023-03-22T11:41:37.676Z,17.75
2023-03-22T11:44:17.577Z,7.55
2023-03-22T11:46:55.252Z,10.38
2023-03-22T11:49:28.312Z,25.67
2023-03-22T11:51:58.861Z,13.57
2023-03-22T11:54:32.015Z,12.32
2023-03-22T11:57:05.866Z,12.32
2023-03-22T11:59:58.107Z,10.70
2023-03-22T12:02:27.875Z,10.82
2023-03-22T12:05:07.662Z,9.90
2023-03-22T12:07:38.507Z,11.43
2023-03-22T12:10:19.559Z,9.65
2023-03-22T12:13:04.683Z,10.32
2023-03-22T12:16:03.025Z,11.57
2023-03-22T12:18:40.556Z,9.60
2023-03-22T12:21:10.582Z,8.23
2023-03-22T12:23:46.438Z,9.85
2023-03-22T12:26:21.917Z,10.35
2023-03-22T12:28:56.424Z,9.77
2023-03-22T12:31:46.460Z,9.55
2023-03-22T12:34:19.825Z,9.88
2023-03-22T12:36:57.529Z,10.57
2023-03-22T12:39:40.915Z,11.63
2023-03-22T12:42:18.931Z,7.13
2023-03-22T12:45:02.224Z,10.48
2023-03-22T12:47:46.968Z,10.93
2023-03-22T12:50:45.995Z,8.82
2023-03-22T12:53:19.624Z,12.35
2023-03-22T12:55:51.622Z,11.60
2023-03-22T12:58:30.630Z,9.85
2023-03-22T13:01:07.799Z,10.43
2023-03-22T13:03:48.661Z,9.23
2023-03-22T13:06:55.452Z,9.73
2023-03-22T13:09:51.695Z,10.00
2023-03-22T13:12:23.790Z,10.98
2023-03-22T13:14:54.212Z,10.13
2023-03-22T13:17:23.931Z,10.15
2023-03-22T13:20:06.662Z,8.73
2023-03-22T13:22:37.023Z,9.05
2023-03-22T13:25:11.952Z,11.00
2023-03-22T13:27:42.087Z,12.25
2023-03-22T13:30:26.247Z,23.40
2023-03-22T13:32:57.144Z,11.10
2023-03-22T13:35:37.811Z,9.80
2023-03-22T13:38:12.934Z,11.15
2023-03-22T13:40:49.933Z,10.15
2023-03-22T13:43:33.475Z,9.73
2023-03-22T13:46:10.583Z,8.17
2023-03-22T13:49:02.260Z,10.70
2023-03-22T13:51:32.752Z,10.50
2023-03-22T13:54:13.251Z,10.65
2023-03-22T13:56:56.406Z,11.45
2023-03-22T13:59:29.954Z,9.50
2023-03-22T14:02:05.472Z,11.82
2023-03-22T14:04:49.733Z,9.75
2023-03-22T14:07:44.381Z,9.38
2023-03-22T14:10:26.239Z,9.35
2023-03-22T14:13:03.914Z,9.57
2023-03-22T14:15:39.238Z,11.02
2023-03-22T14:18:30.574Z,13.13
2023-03-22T14:21:34.484Z,12.38
